createdAt,value
2023-05-05T00:00:52.300Z,98766.47
2023-05-05T00:03:20.476Z,98768.53
2023-05-05T00:05:48.001Z,98766.25
2023-05-05T00:08:15.167Z,98760.03
2023-05-05T00:10:42.546Z,98761.88
2023-05-05T00:13:11.283Z,98759.16
2023-05-05T00:15:38.600Z,98762.94
2023-05-05T00:18:05.780Z,98763.56
2023-05-05T00:20:32.970Z,98766.28
2023-05-05T00:23:00.216Z,98770.84
2023-05-05T00:25:27.381Z,98762.72
2023-05-05T00:27:54.520Z,98757.94
2023-05-05T00:30:23.222Z,98756.91
2023-05-05T00:32:50.378Z,98753.28
2023-05-05T00:35:17.726Z,98753.47
2023-05-05T00:37:44.825Z,98755.94
2023-05-05T00:40:12.749Z,98756.97
2023-05-05T00:42:43.031Z,98757.81
2023-05-05T00:45:10.711Z,98758.44
2023-05-05T00:47:39.588Z,98754.28
2023-05-05T00:50:07.588Z,98754.66
2023-05-05T00:52:35.612Z,98757.34
2023-05-05T00:55:02.996Z,98744.69
2023-05-05T00:57:30.322Z,98753.81
2023-05-05T00:59:59.152Z,98755.06
2023-05-05T01:02:26.354Z,98757.94
2023-05-05T01:04:55.286Z,98758.38
2023-05-05T01:07:29.156Z,98759.22
2023-05-05T01:10:15.167Z,98750.59
2023-05-05T01:12:51.641Z,98750.22
2023-05-05T01:15:22.849Z,98743.06
2023-05-05T01:17:54.056Z,98742.22
2023-05-05T01:20:26.254Z,98747.50
2023-05-05T01:22:57.237Z,98742.28
2023-05-05T01:25:39.924Z,98742.69
2023-05-05T01:28:11.510Z,98754.28
2023-05-05T01:30:46.163Z,98757.94
2023-05-05T01:33:18.909Z,98771.59
2023-05-05T01:35:47.404Z,98760.78
2023-05-05T01:38:15.312Z,98766.81
2023-05-05T01:40:45.007Z,98779.53
2023-05-05T01:43:13.947Z,98772.00
2023-05-05T01:45:42.609Z,98777.16
2023-05-05T01:48:10.652Z,98780.91
2023-05-05T01:50:39.659Z,98786.06
2023-05-05T01:53:08.084Z,98780.34
2023-05-05T01:55:35.882Z,98785.97
2023-05-05T01:58:03.767Z,98780.38
2023-05-05T02:00:31.180Z,98782.88
2023-05-05T02:02:59.288Z,98798.28
2023-05-05T02:05:26.792Z,98797.84
2023-05-05T02:07:57.963Z,98782.28
2023-05-05T02:10:25.733Z,98793.38
2023-05-05T02:12:53.945Z,98796.44
2023-05-05T02:15:21.864Z,98794.56
2023-05-05T02:17:50.827Z,98792.53
2023-05-05T02:20:18.673Z,98788.34
2023-05-05T02:22:45.995Z,98788.50
2023-05-05T02:25:14.882Z,98789.16
2023-05-05T02:27:43.174Z,98788.72
2023-05-05T02:30:12.087Z,98785.78
2023-05-05T02:32:43.217Z,98782.03
2023-05-05T02:35:14.421Z,98786.22
2023-05-05T02:37:45.208Z,98787.81
2023-05-05T02:40:18.089Z,98786.84
2023-05-05T02:42:47.393Z,98803.28
2023-05-05T02:45:16.041Z,98792.00
2023-05-05T02:47:46.176Z,98795.75
2023-05-05T02:50:14.007Z,98803.28
2023-05-05T02:52:48.134Z,98800.38
2023-05-05T02:55:18.489Z,98803.69
2023-05-05T02:57:49.934Z,98800.78
2023-05-05T03:00:23.027Z,98797.47
2023-05-05T03:02:55.092Z,98794.53
2023-05-05T03:05:23.877Z,98794.53
2023-05-05T03:07:54.939Z,98794.16
2023-05-05T03:10:28.541Z,98795.41
2023-05-05T03:12:58.636Z,98798.78
2023-05-05T03:15:36.886Z,98790.59
2023-05-05T03:18:06.558Z,98796.63
2023-05-05T03:20:34.697Z,98808.50
2023-05-05T03:23:07.524Z,98798.69
2023-05-05T03:25:46.450Z,98800.78
2023-05-05T03:28:26.927Z,98799.03
2023-05-05T03:30:55.308Z,98801.41
2023-05-05T03:33:22.685Z,98802.81
2023-05-05T03:35:50.127Z,98799.00
2023-05-05T03:38:18.258Z,98803.69
2023-05-05T03:40:47.589Z,98806.56
2023-05-05T03:43:18.284Z,98811.28
2023-05-05T03:45:45.554Z,98801.59
2023-05-05T03:48:12.892Z,98813.88
2023-05-05T03:50:44.633Z,98803.94
2023-05-05T03:53:13.198Z,98808.56
2023-05-05T03:55:41.328Z,98811.34
2023-05-05T03:58:09.971Z,98805.69
2023-05-05T04:00:37.296Z,98811.81
2023-05-05T04:03:05.233Z,98816.69
2023-05-05T04:05:32.560Z,98806.69
2023-05-05T04:07:59.791Z,98810.25
2023-05-05T04:10:27.015Z,98817.31
2023-05-05T04:12:54.786Z,98816.31
2023-05-05T04:15:23.565Z,98823.19
2023-05-05T04:17:50.891Z,98815.25
2023-05-05T04:20:18.222Z,98820.66
2023-05-05T04:22:45.347Z,98825.44
2023-05-05T04:25:12.647Z,98823.81
2023-05-05T04:27:39.776Z,98820.44
2023-05-05T04:30:08.630Z,98824.84
2023-05-05T04:32:39.589Z,98822.09
2023-05-05T04:35:07.629Z,98826.53
2023-05-05T04:37:34.728Z,98822.56
2023-05-05T04:40:01.869Z,98821.09
2023-05-05T04:42:31.095Z,98815.84
2023-05-05T04:44:58.369Z,98821.72
2023-05-05T04:47:25.860Z,98821.09
2023-05-05T04:49:56.021Z,98815.06
2023-05-05T04:52:23.377Z,98828.56
2023-05-05T04:54:51.748Z,98819.78
2023-05-05T04:57:18.927Z,98821.91
2023-05-05T04:59:46.154Z,98825.03
2023-05-05T05:02:13.441Z,98822.13
2023-05-05T05:04:40.654Z,98820.66
2023-05-05T05:07:09.276Z,98830.06
2023-05-05T05:09:36.356Z,98827.97
2023-05-05T05:12:03.712Z,98825.03
2023-05-05T05:14:30.925Z,98830.47
2023-05-05T05:16:58.034Z,98833.19
2023-05-05T05:19:25.187Z,98829.41
2023-05-05T05:21:52.923Z,98829.19
2023-05-05T05:24:21.550Z,98826.69
2023-05-05T05:26:48.733Z,98827.75
2023-05-05T05:29:16.333Z,98823.19
2023-05-05T05:31:43.729Z,98820.06
2023-05-05T05:34:12.803Z,98813.28
2023-05-05T05:36:41.489Z,98818.19
2023-05-05T05:39:08.654Z,98818.53
2023-05-05T05:41:37.265Z,98819.75
2023-05-05T05:44:04.505Z,98826.38
2023-05-05T05:46:32.140Z,98822.13
2023-05-05T05:48:59.346Z,98818.59
2023-05-05T05:51:27.192Z,98821.72
2023-05-05T05:53:55.103Z,98819.69
2023-05-05T05:56:23.723Z,98820.44
2023-05-05T05:58:53.301Z,98820.03
2023-05-05T06:01:20.861Z,98826.28
2023-05-05T06:03:48.448Z,98828.97
2023-05-05T06:06:16.170Z,98821.63
2023-05-05T06:08:44.838Z,98821.81
2023-05-05T06:11:12.031Z,98813.69
2023-05-05T06:13:39.225Z,98812.94
2023-05-05T06:16:08.750Z,98805.44
2023-05-05T06:18:37.536Z,98814.81
2023-05-05T06:21:04.808Z,98816.81
2023-05-05T06:23:32.345Z,98812.72
2023-05-05T06:26:04.250Z,98807.53
2023-05-05T06:28:31.361Z,98817.72
2023-05-05T06:30:58.454Z,98814.00
2023-05-05T06:33:27.072Z,98806.72
2023-05-05T06:35:54.319Z,98812.34
2023-05-05T06:38:21.494Z,98811.47
2023-05-05T06:40:48.620Z,98807.94
2023-05-05T06:43:15.949Z,98806.06
2023-05-05T06:45:48.205Z,98806.69
2023-05-05T06:48:15.361Z,98805.34
2023-05-05T06:50:44.072Z,98801.97
2023-05-05T06:53:11.206Z,98814.72
2023-05-05T06:55:38.388Z,98807.59
2023-05-05T06:58:05.574Z,98801.84
2023-05-05T07:00:32.998Z,98799.91
2023-05-05T07:03:00.313Z,98800.44
2023-05-05T07:05:27.548Z,98794.81
2023-05-05T07:07:56.745Z,98800.47
2023-05-05T07:10:24.703Z,98801.19
2023-05-05T07:12:52.307Z,98793.91
2023-05-05T07:15:27.353Z,98792.88
2023-05-05T07:17:56.119Z,98788.38
2023-05-05T07:20:23.384Z,98795.03
2023-05-05T07:22:50.510Z,98794.16
2023-05-05T07:25:19.299Z,98788.25
2023-05-05T07:27:46.495Z,98790.66
2023-05-05T07:30:18.752Z,98779.44
2023-05-05T07:32:46.470Z,98787.38
2023-05-05T07:35:13.786Z,98782.38
2023-05-05T07:37:40.962Z,98777.84
2023-05-05T07:40:08.939Z,98780.22
2023-05-05T07:42:37.783Z,98789.22
2023-05-05T07:45:05.421Z,98777.66
2023-05-05T07:47:32.704Z,98781.66
2023-05-05T07:50:01.205Z,98772.69
2023-05-05T07:52:44.230Z,98786.84
2023-05-05T07:55:13.668Z,98782.38
2023-05-05T07:57:42.312Z,98775.44
2023-05-05T08:00:10.210Z,98781.19
2023-05-05T08:02:40.646Z,98778.31
2023-05-05T08:05:08.578Z,98774.81
2023-05-05T08:07:36.088Z,98782.06
2023-05-05T08:10:03.231Z,98776.53
2023-05-05T08:12:30.476Z,98775.44
2023-05-05T08:14:59.075Z,98773.06
2023-05-05T08:17:26.378Z,98768.19
2023-05-05T08:19:53.573Z,98768.63
2023-05-05T08:22:21.403Z,98784.47
2023-05-05T08:24:48.607Z,98771.31
2023-05-05T08:27:15.858Z,98764.25
2023-05-05T08:29:42.976Z,98765.41
2023-05-05T08:32:12.053Z,98764.09
2023-05-05T08:34:39.296Z,98764.47
2023-05-05T08:37:06.502Z,98768.53
2023-05-05T08:39:33.626Z,98767.41
2023-05-05T08:42:00.909Z,98762.47
2023-05-05T08:44:28.283Z,98756.41
2023-05-05T08:46:56.496Z,98754.59
2023-05-05T08:49:25.830Z,98756.91
2023-05-05T08:51:54.374Z,98759.47
2023-05-05T08:54:23.767Z,98756.91
2023-05-05T08:56:51.419Z,98758.53
2023-05-05T08:59:19.090Z,98750.09
2023-05-05T09:01:47.079Z,98754.06
2023-05-05T09:04:14.464Z,98755.91
2023-05-05T09:06:43.096Z,98755.13
2023-05-05T09:09:10.399Z,98753.06
2023-05-05T09:11:37.904Z,98754.28
2023-05-05T09:14:05.010Z,98754.56
2023-05-05T09:16:32.435Z,98751.09
2023-05-05T09:19:03.282Z,98753.31
2023-05-05T09:21:30.972Z,98750.78
2023-05-05T09:24:08.407Z,98751.25
2023-05-05T09:26:36.975Z,98756.25
2023-05-05T09:29:04.170Z,98749.03
2023-05-05T09:31:31.795Z,98741.47
2023-05-05T09:33:59.954Z,98735.19
2023-05-05T09:36:41.311Z,98737.50
2023-05-05T09:39:10.111Z,98730.56
2023-05-05T09:41:38.113Z,98735.19
2023-05-05T09:44:05.483Z,98728.16
2023-05-05T09:46:32.794Z,98729.91
2023-05-05T09:49:12.211Z,98725.00
2023-05-05T09:51:39.621Z,98726.63
2023-05-05T09:54:06.891Z,98726.06
2023-05-05T09:56:39.132Z,98716.28
2023-05-05T09:59:09.215Z,98708.59
2023-05-05T10:01:36.426Z,98695.75
2023-05-05T10:04:03.564Z,98703.53
2023-05-05T10:06:40.403Z,98700.31
2023-05-05T10:09:07.563Z,98690.47
2023-05-05T10:11:35.316Z,98696.44
2023-05-05T10:14:06.728Z,98691.97
2023-05-05T10:16:35.892Z,98701.41
2023-05-05T10:19:03.507Z,98695.50
2023-05-05T10:21:33.411Z,98691.22
2023-05-05T10:24:06.818Z,98692.16
2023-05-05T10:26:34.968Z,98685.13
2023-05-05T10:29:07.905Z,98684.16
2023-05-05T10:31:41.873Z,98690.38
2023-05-05T10:34:10.865Z,98680.63
2023-05-05T10:36:38.395Z,98685.75
2023-05-05T10:39:05.977Z,98677.22
2023-05-05T10:41:33.380Z,98680.44
2023-05-05T10:44:03.644Z,98682.47
2023-05-05T10:46:33.502Z,98675.34
2023-05-05T10:49:05.143Z,98675.53
2023-05-05T10:51:40.489Z,98669.03
2023-05-05T10:54:10.909Z,98669.97
2023-05-05T10:56:40.178Z,98665.63
2023-05-05T10:59:22.083Z,98656.59
2023-05-05T11:01:50.737Z,98658.38
2023-05-05T11:04:18.543Z,98656.81
2023-05-05T11:07:03.948Z,98646.28
2023-05-05T11:09:31.255Z,98648.13
2023-05-05T11:12:03.026Z,98642.81
2023-05-05T11:14:30.560Z,98637.31
2023-05-05T11:16:59.264Z,98646.06
2023-05-05T11:19:41.133Z,98647.53
2023-05-05T11:22:08.303Z,98634.81
2023-05-05T11:24:35.816Z,98631.53
2023-05-05T11:27:03.251Z,98631.44
2023-05-05T11:29:45.366Z,98627.84
2023-05-05T11:32:14.236Z,98624.81
2023-05-05T11:34:48.459Z,98617.25
2023-05-05T11:37:16.115Z,98622.44
2023-05-05T11:39:47.615Z,98615.63
2023-05-05T11:42:22.584Z,98623.50
2023-05-05T11:44:49.687Z,98613.09
2023-05-05T11:47:28.772Z,98617.78
2023-05-05T11:49:56.095Z,98616.59
2023-05-05T11:52:25.418Z,98607.47
2023-05-05T11:54:53.216Z,98611.31
2023-05-05T11:57:21.376Z,98607.84
2023-05-05T11:59:54.353Z,98598.13
2023-05-05T12:02:21.775Z,98601.75
2023-05-05T12:04:50.908Z,98597.75
2023-05-05T12:07:18.781Z,98597.44
2023-05-05T12:09:46.353Z,98594.34
2023-05-05T12:12:13.944Z,98593.69
2023-05-05T12:14:48.535Z,98591.34
2023-05-05T12:17:15.741Z,98594.69
2023-05-05T12:19:46.517Z,98593.44
2023-05-05T12:22:19.964Z,98591.81
2023-05-05T12:24:54.438Z,98587.06
2023-05-05T12:27:22.138Z,98577.75
2023-05-05T12:29:49.629Z,98580.53
2023-05-05T12:32:20.545Z,98582.13
2023-05-05T12:34:48.213Z,98584.84
2023-05-05T12:37:15.557Z,98589.56
2023-05-05T12:39:44.535Z,98585.09
2023-05-05T12:42:11.602Z,98580.56
2023-05-05T12:44:39.648Z,98588.63
2023-05-05T12:47:07.142Z,98582.19
2023-05-05T12:49:44.949Z,98581.41
2023-05-05T12:52:12.059Z,98576.25
2023-05-05T12:54:54.744Z,98574.75
2023-05-05T12:57:22.541Z,98582.19
2023-05-05T12:59:49.947Z,98567.78
2023-05-05T13:02:17.043Z,98564.72
2023-05-05T13:04:51.264Z,98556.13
2023-05-05T13:07:18.896Z,98554.06
2023-05-05T13:09:46.372Z,98555.06
2023-05-05T13:12:15.102Z,98555.34
2023-05-05T13:14:42.226Z,98562.44
2023-05-05T13:17:10.140Z,98542.72
2023-05-05T13:19:37.358Z,98545.63
2023-05-05T13:22:04.475Z,98541.78
2023-05-05T13:24:42.275Z,98542.44
2023-05-05T13:27:15.582Z,98546.84
2023-05-05T13:29:42.644Z,98551.94
2023-05-05T13:32:09.709Z,98544.66
2023-05-05T13:34:36.896Z,98552.91
2023-05-05T13:37:03.998Z,98555.72
2023-05-05T13:39:31.088Z,98543.63
2023-05-05T13:41:58.240Z,98548.13
2023-05-05T13:44:26.783Z,98551.22
2023-05-05T13:46:54.079Z,98542.97
2023-05-05T13:49:21.394Z,98543.75
2023-05-05T13:51:48.666Z,98539.28
2023-05-05T13:54:15.888Z,98542.50
2023-05-05T13:56:43.132Z,98543.53
2023-05-05T13:59:10.620Z,98538.63
2023-05-05T14:01:39.326Z,98551.25
2023-05-05T14:04:06.549Z,98547.19
2023-05-05T14:06:34.308Z,98542.31
2023-05-05T14:09:01.418Z,98546.44
2023-05-05T14:11:28.754Z,98537.63
2023-05-05T14:13:55.856Z,98544.09
2023-05-05T14:16:23.140Z,98543.69
2023-05-05T14:18:52.754Z,98543.94
2023-05-05T14:21:19.813Z,98538.63
2023-05-05T14:23:46.967Z,98534.22
2023-05-05T14:26:14.118Z,98525.91
2023-05-05T14:28:41.181Z,98533.97
2023-05-05T14:31:08.277Z,98534.75
2023-05-05T14:33:35.372Z,98518.59
2023-05-05T14:36:04.043Z,98538.44
2023-05-05T14:38:31.188Z,98534.28
2023-05-05T14:40:58.411Z,98527.94
2023-05-05T14:43:25.604Z,98529.28
2023-05-05T14:45:52.749Z,98526.94
2023-05-05T14:48:19.934Z,98525.13
2023-05-05T14:50:47.002Z,98521.72
2023-05-05T14:53:15.526Z,98522.56
2023-05-05T14:55:42.597Z,98519.59
2023-05-05T14:58:10.089Z,98531.06
2023-05-05T15:00:37.237Z,98538.81
2023-05-05T15:03:04.455Z,98530.66
2023-05-05T15:05:31.638Z,98519.59
2023-05-05T15:07:58.776Z,98531.78
2023-05-05T15:10:27.330Z,98531.78
2023-05-05T15:12:54.947Z,98531.34
2023-05-05T15:15:22.129Z,98522.66
2023-05-05T15:17:49.268Z,98532.47
2023-05-05T15:20:16.375Z,98531.41
2023-05-05T15:22:43.597Z,98527.94
2023-05-05T15:25:11.102Z,98531.25
2023-05-05T15:27:39.857Z,98538.31
2023-05-05T15:30:07.720Z,98533.47
2023-05-05T15:32:34.881Z,98545.44
2023-05-05T15:35:02.115Z,98536.44
2023-05-05T15:37:29.214Z,98543.59
2023-05-05T15:39:56.482Z,98550.72
2023-05-05T15:42:23.999Z,98552.19
2023-05-05T15:44:52.493Z,98560.34
2023-05-05T15:47:19.783Z,98564.50
2023-05-05T15:49:46.992Z,98560.13
2023-05-05T15:52:14.111Z,98563.63
2023-05-05T15:54:41.183Z,98563.50
2023-05-05T15:57:08.439Z,98560.72
2023-05-05T15:59:35.685Z,98561.69
2023-05-05T16:02:04.260Z,98568.38
2023-05-05T16:04:31.889Z,98560.16
2023-05-05T16:06:58.958Z,98565.97
2023-05-05T16:09:26.042Z,98561.28
2023-05-05T16:11:53.548Z,98561.50
2023-05-05T16:14:20.620Z,98561.34
2023-05-05T16:16:47.797Z,98563.91
2023-05-05T16:19:16.457Z,98564.59
2023-05-05T16:21:43.516Z,98565.81
2023-05-05T16:24:10.591Z,98566.88
2023-05-05T16:26:37.760Z,98559.19
2023-05-05T16:29:04.877Z,98562.34
2023-05-05T16:31:32.354Z,98567.97
2023-05-05T16:33:59.450Z,98566.47
2023-05-05T16:36:28.073Z,98565.03
2023-05-05T16:38:55.225Z,98559.00
2023-05-05T16:41:22.372Z,98560.44
2023-05-05T16:43:49.714Z,98567.75
2023-05-05T16:46:17.083Z,98553.16
2023-05-05T16:48:44.660Z,98555.03
2023-05-05T16:51:12.123Z,98558.78
2023-05-05T16:53:40.882Z,98552.72
2023-05-05T16:56:11.249Z,98550.66
2023-05-05T16:58:38.413Z,98550.09
2023-05-05T17:01:06.372Z,98554.94
2023-05-05T17:03:33.428Z,98548.72
2023-05-05T17:06:00.773Z,98539.94
2023-05-05T17:08:28.132Z,98549.72
2023-05-05T17:10:56.664Z,98546.19
2023-05-05T17:13:23.889Z,98543.03
2023-05-05T17:15:50.996Z,98544.13
2023-05-05T17:18:18.153Z,98542.44
2023-05-05T17:20:45.444Z,98547.88
2023-05-05T17:23:12.610Z,98539.09
2023-05-05T17:25:40.454Z,98539.75
2023-05-05T17:28:09.353Z,98538.50
2023-05-05T17:30:36.541Z,98537.94
2023-05-05T17:33:04.218Z,98536.25
2023-05-05T17:35:31.940Z,98534.34
2023-05-05T17:37:59.344Z,98544.38
2023-05-05T17:40:27.308Z,98525.25
2023-05-05T17:42:54.836Z,98527.31
2023-05-05T17:45:23.901Z,98535.22
2023-05-05T17:47:51.648Z,98526.72
2023-05-05T17:50:19.150Z,98527.31
2023-05-05T17:52:46.606Z,98527.75
2023-05-05T17:55:13.926Z,98528.16
2023-05-05T17:57:41.640Z,98528.59
2023-05-05T18:00:09.682Z,98534.81
2023-05-05T18:02:41.390Z,98531.72
2023-05-05T18:05:09.699Z,98533.91
2023-05-05T18:07:37.566Z,98532.34
2023-05-05T18:10:05.001Z,98532.97
2023-05-05T18:12:32.222Z,98535.88
2023-05-05T18:14:59.526Z,98535.91
2023-05-05T18:17:26.905Z,98533.38
2023-05-05T18:19:55.488Z,98530.44
2023-05-05T18:22:22.605Z,98528.81
2023-05-05T18:24:50.054Z,98529.00
2023-05-05T18:27:17.272Z,98530.47
2023-05-05T18:29:45.065Z,98527.16
2023-05-05T18:32:12.232Z,98523.81
2023-05-05T18:34:39.308Z,98520.72
2023-05-05T18:37:07.813Z,98516.97
2023-05-05T18:39:34.884Z,98515.91
2023-05-05T18:42:02.049Z,98518.44
2023-05-05T18:44:29.100Z,98509.06
2023-05-05T18:46:56.268Z,98509.84
2023-05-05T18:49:23.895Z,98514.25
2023-05-05T18:51:50.960Z,98514.69
2023-05-05T18:54:19.641Z,98513.84
2023-05-05T18:56:46.729Z,98508.84
2023-05-05T18:59:13.888Z,98507.19
2023-05-05T19:01:42.990Z,98508.59
2023-05-05T19:04:26.625Z,98511.34
2023-05-05T19:06:58.127Z,98508.22
2023-05-05T19:09:26.880Z,98503.66
2023-05-05T19:11:53.969Z,98501.19
2023-05-05T19:14:21.028Z,98502.22
2023-05-05T19:16:48.265Z,98498.66
2023-05-05T19:19:15.341Z,98500.13
2023-05-05T19:21:42.476Z,98499.69
2023-05-05T19:24:09.801Z,98496.78
2023-05-05T19:26:38.540Z,98498.69
2023-05-05T19:29:05.608Z,98493.88
2023-05-05T19:31:32.786Z,98497.63
2023-05-05T19:34:01.083Z,98500.13
2023-05-05T19:36:28.295Z,98498.69
2023-05-05T19:38:55.849Z,98505.13
2023-05-05T19:41:22.956Z,98502.84
2023-05-05T19:43:51.573Z,98503.28
2023-05-05T19:46:19.233Z,98503.47
2023-05-05T19:48:46.422Z,98501.38
2023-05-05T19:51:13.548Z,98507.81
2023-05-05T19:53:40.611Z,98507.34
2023-05-05T19:56:07.773Z,98504.38
2023-05-05T19:58:52.574Z,98508.53
2023-05-05T20:01:21.538Z,98505.56
2023-05-05T20:03:48.832Z,98506.97
2023-05-05T20:06:16.464Z,98505.56
2023-05-05T20:08:43.706Z,98506.38
2023-05-05T20:11:11.346Z,98503.88
2023-05-05T20:13:38.457Z,98496.56
2023-05-05T20:16:06.351Z,98509.06
2023-05-05T20:18:34.929Z,98497.19
2023-05-05T20:21:02.426Z,98500.47
2023-05-05T20:23:29.763Z,98497.41
2023-05-05T20:25:57.345Z,98492.84
2023-05-05T20:28:25.185Z,98493.19
2023-05-05T20:30:52.912Z,98495.75
2023-05-05T20:33:20.005Z,98495.75
2023-05-05T20:35:48.650Z,98487.00
2023-05-05T20:38:15.819Z,98492.66
2023-05-05T20:40:42.849Z,98485.78
2023-05-05T20:43:09.937Z,98492.88
2023-05-05T20:45:37.058Z,98491.81
2023-05-05T20:48:04.651Z,98486.19
2023-05-05T20:50:31.747Z,98483.84
2023-05-05T20:53:01.279Z,98486.56
2023-05-05T20:55:28.989Z,98484.50
2023-05-05T20:57:56.142Z,98480.53
2023-05-05T21:00:23.529Z,98483.84
2023-05-05T21:02:50.820Z,98477.81
2023-05-05T21:05:18.138Z,98486.13
2023-05-05T21:07:45.344Z,98485.75
2023-05-05T21:10:13.897Z,98480.97
2023-05-05T21:12:41.315Z,98485.34
2023-05-05T21:15:09.339Z,98475.81
2023-05-05T21:17:36.765Z,98478.06
2023-05-05T21:20:04.330Z,98476.66
2023-05-05T21:22:31.397Z,98476.00
2023-05-05T21:25:08.387Z,98475.97
2023-05-05T21:27:36.907Z,98470.78
2023-05-05T21:30:04.221Z,98474.31
2023-05-05T21:32:31.574Z,98471.44
2023-05-05T21:34:58.920Z,98475.41
2023-05-05T21:37:26.286Z,98466.03
2023-05-05T21:39:53.366Z,98464.97
2023-05-05T21:42:21.880Z,98474.19
2023-05-05T21:44:50.630Z,98471.03
2023-05-05T21:47:18.037Z,98461.28
2023-05-05T21:49:45.210Z,98464.78
2023-05-05T21:52:12.490Z,98461.00
2023-05-05T21:54:39.749Z,98462.03
2023-05-05T21:57:06.864Z,98463.53
2023-05-05T21:59:34.489Z,98461.44
2023-05-05T22:02:03.480Z,98452.94
2023-05-05T22:04:30.743Z,98453.56
2023-05-05T22:06:58.352Z,98459.19
2023-05-05T22:09:25.528Z,98451.91
2023-05-05T22:11:52.722Z,98456.53
2023-05-05T22:14:19.924Z,98446.75
2023-05-05T22:16:47.051Z,98452.31
2023-05-05T22:19:15.912Z,98447.50
2023-05-05T22:21:43.079Z,98447.16
2023-05-05T22:24:10.197Z,98456.31
2023-05-05T22:26:37.355Z,98451.72
2023-05-05T22:29:04.390Z,98448.56
2023-05-05T22:31:31.507Z,98450.69
2023-05-05T22:33:58.698Z,98450.66
2023-05-05T22:36:27.357Z,98450.91
2023-05-05T22:38:54.956Z,98450.69
2023-05-05T22:41:22.453Z,98444.66
2023-05-05T22:43:49.574Z,98445.28
2023-05-05T22:46:16.623Z,98442.38
2023-05-05T22:48:43.764Z,98442.13
2023-05-05T22:51:11.317Z,98440.91
2023-05-05T22:53:39.951Z,98439.47
2023-05-05T22:56:07.264Z,98442.16
2023-05-05T22:58:34.317Z,98438.00
2023-05-05T23:01:02.108Z,98436.97
2023-05-05T23:03:29.227Z,98437.56
2023-05-05T23:05:56.359Z,98434.69
2023-05-05T23:08:23.478Z,98437.00
2023-05-05T23:10:51.980Z,98432.63
2023-05-05T23:13:19.102Z,98442.22
2023-05-05T23:15:46.201Z,98436.16
2023-05-05T23:18:13.283Z,98428.28
2023-05-05T23:20:40.957Z,98436.22
2023-05-05T23:23:08.094Z,98441.81
2023-05-05T23:25:35.173Z,98436.81
2023-05-05T23:28:04.043Z,98433.09
2023-05-05T23:30:31.634Z,98433.31
2023-05-05T23:32:58.752Z,98435.41
2023-05-05T23:35:25.896Z,98443.50
2023-05-05T23:37:52.954Z,98436.66
2023-05-05T23:40:20.153Z,98426.25
2023-05-05T23:42:47.209Z,98425.84
2023-05-05T23:45:17.553Z,98426.22
2023-05-05T23:47:45.946Z,98426.44
2023-05-05T23:50:13.047Z,98430.66
2023-05-05T23:52:40.209Z,98425.66
2023-05-05T23:55:08.676Z,98430.44
2023-05-05T23:57:36.493Z,98421.47
